sensor_id;sensor_type;location;lat;lon;timestamp;temperature;humidity
13742;DHT22;8461;52.356;10.704;2023-02-12T00:01:33;7.30;99.90
13742;DHT22;8461;52.356;10.704;2023-02-12T00:03:59;7.30;99.90
13742;DHT22;8461;52.356;10.704;2023-02-12T00:06:25;7.30;99.90
13742;DHT22;8461;52.356;10.704;2023-02-12T00:08:52;7.30;99.90
13742;DHT22;8461;52.356;10.704;2023-02-12T00:11:20;7.30;99.90
13742;DHT22;8461;52.356;10.704;2023-02-12T00:13:47;7.30;99.90
13742;DHT22;8461;52.356;10.704;2023-02-12T00:16:16;7.30;99.90
13742;DHT22;8461;52.356;10.704;2023-02-12T00:18:42;7.30;99.90
13742;DHT22;8461;52.356;10.704;2023-02-12T00:21:08;7.30;99.90
13742;DHT22;8461;52.356;10.704;2023-02-12T00:23:34;7.30;99.90
13742;DHT22;8461;52.356;10.704;2023-02-12T00:26:04;7.30;99.90
13742;DHT22;8461;52.356;10.704;2023-02-12T00:28:29;7.30;99.90
13742;DHT22;8461;52.356;10.704;2023-02-12T00:30:55;7.30;99.90
13742;DHT22;8461;52.356;10.704;2023-02-12T00:33:21;7.30;99.90
13742;DHT22;8461;52.356;10.704;2023-02-12T00:35:57;7.30;99.90
13742;DHT22;8461;52.356;10.704;2023-02-12T00:38:22;7.30;99.90
13742;DHT22;8461;52.356;10.704;2023-02-12T00:40:48;7.30;99.90
13742;DHT22;8461;52.356;10.704;2023-02-12T00:43:14;7.30;99.90
13742;DHT22;8461;52.356;10.704;2023-02-12T00:45:39;7.30;99.90
13742;DHT22;8461;52.356;10.704;2023-02-12T00:48:05;7.30;99.90
13742;DHT22;8461;52.356;10.704;2023-02-12T00:50:30;7.30;99.90
13742;DHT22;8461;52.356;10.704;2023-02-12T00:52:56;7.30;99.90
13742;DHT22;8461;52.356;10.704;2023-02-12T00:55:21;7.30;99.90
13742;DHT22;8461;52.356;10.704;2023-02-12T00:57:47;7.30;99.90
13742;DHT22;8461;52.356;10.704;2023-02-12T01:00:13;7.30;99.90
13742;DHT22;8461;52.356;10.704;2023-02-12T01:02:39;7.30;99.90
13742;DHT22;8461;52.356;10.704;2023-02-12T01:05:05;7.30;99.90
13742;DHT22;8461;52.356;10.704;2023-02-12T01:07:31;7.30;99.90
13742;DHT22;8461;52.356;10.704;2023-02-12T01:09:56;7.30;99.90
13742;DHT22;8461;52.356;10.704;2023-02-12T01:12:22;7.30;99.90
13742;DHT22;8461;52.356;10.704;2023-02-12T01:14:47;7.30;99.90
13742;DHT22;8461;52.356;10.704;2023-02-12T01:17:13;7.20;99.90
13742;DHT22;8461;52.356;10.704;2023-02-12T01:19:38;7.30;99.90
13742;DHT22;8461;52.356;10.704;2023-02-12T01:22:04;7.30;99.90
13742;DHT22;8461;52.356;10.704;2023-02-12T01:24:29;7.20;99.90
13742;DHT22;8461;52.356;10.704;2023-02-12T01:26:55;7.30;99.90
13742;DHT22;8461;52.356;10.704;2023-02-12T01:29:20;7.30;99.90
13742;DHT22;8461;52.356;10.704;2023-02-12T01:31:46;7.30;99.90
13742;DHT22;8461;52.356;10.704;2023-02-12T01:34:11;7.30;99.90
13742;DHT22;8461;52.356;10.704;2023-02-12T01:36:38;7.30;99.90
13742;DHT22;8461;52.356;10.704;2023-02-12T01:39:04;7.20;99.90
13742;DHT22;8461;52.356;10.704;2023-02-12T01:41:34;7.20;99.90
13742;DHT22;8461;52.356;10.704;2023-02-12T01:44:20;7.30;99.90
13742;DHT22;8461;52.356;10.704;2023-02-12T01:46:48;7.30;99.90
13742;DHT22;8461;52.356;10.704;2023-02-12T01:49:38;7.20;99.90
13742;DHT22;8461;52.356;10.704;2023-02-12T01:54:45;7.30;99.90
13742;DHT22;8461;52.356;10.704;2023-02-12T01:57:12;7.20;99.90
13742;DHT22;8461;52.356;10.704;2023-02-12T01:59:39;7.20;99.90
13742;DHT22;8461;52.356;10.704;2023-02-12T02:02:05;7.20;99.90
13742;DHT22;8461;52.356;10.704;2023-02-12T02:04:38;7.20;99.90
13742;DHT22;8461;52.356;10.704;2023-02-12T02:07:05;7.20;99.90
13742;DHT22;8461;52.356;10.704;2023-02-12T02:09:34;7.20;99.90
13742;DHT22;8461;52.356;10.704;2023-02-12T02:12:00;7.20;99.90
13742;DHT22;8461;52.356;10.704;2023-02-12T02:14:45;7.20;99.90
13742;DHT22;8461;52.356;10.704;2023-02-12T02:17:29;7.20;99.90
13742;DHT22;8461;52.356;10.704;2023-02-12T02:32:11;7.20;99.90
13742;DHT22;8461;52.356;10.704;2023-02-12T02:37:39;7.20;99.90
13742;DHT22;8461;52.356;10.704;2023-02-12T02:40:14;7.20;99.90
13742;DHT22;8461;52.356;10.704;2023-02-12T02:45:26;7.20;99.90
13742;DHT22;8461;52.356;10.704;2023-02-12T02:50:45;7.20;99.90
13742;DHT22;8461;52.356;10.704;2023-02-12T02:53:16;7.20;99.90
13742;DHT22;8461;52.356;10.704;2023-02-12T02:55:51;7.20;99.90
13742;DHT22;8461;52.356;10.704;2023-02-12T02:58:35;7.20;99.90
13742;DHT22;8461;52.356;10.704;2023-02-12T03:01:13;7.20;99.90
13742;DHT22;8461;52.356;10.704;2023-02-12T03:06:49;7.20;99.90
13742;DHT22;8461;52.356;10.704;2023-02-12T03:09:27;7.20;99.90
13742;DHT22;8461;52.356;10.704;2023-02-12T03:12:02;7.20;99.90
13742;DHT22;8461;52.356;10.704;2023-02-12T03:14:32;7.20;99.90
13742;DHT22;8461;52.356;10.704;2023-02-12T03:17:06;7.10;99.90
13742;DHT22;8461;52.356;10.704;2023-02-12T03:19:46;7.10;99.90
13742;DHT22;8461;52.356;10.704;2023-02-12T03:22:27;7.10;99.90
13742;DHT22;8461;52.356;10.704;2023-02-12T03:25:00;7.10;99.90
13742;DHT22;8461;52.356;10.704;2023-02-12T03:27:36;7.10;99.90
13742;DHT22;8461;52.356;10.704;2023-02-12T03:30:03;7.20;99.90
13742;DHT22;8461;52.356;10.704;2023-02-12T03:32:32;7.20;99.90
13742;DHT22;8461;52.356;10.704;2023-02-12T03:40:32;7.10;99.90
13742;DHT22;8461;52.356;10.704;2023-02-12T03:43:03;7.10;99.90
13742;DHT22;8461;52.356;10.704;2023-02-12T03:45:48;7.10;99.90
13742;DHT22;8461;52.356;10.704;2023-02-12T03:48:21;7.10;99.90
13742;DHT22;8461;52.356;10.704;2023-02-12T03:51:15;7.10;99.90
13742;DHT22;8461;52.356;10.704;2023-02-12T03:53:42;7.10;99.90
13742;DHT22;8461;52.356;10.704;2023-02-12T03:56:19;7.10;99.90
13742;DHT22;8461;52.356;10.704;2023-02-12T03:58:46;7.10;99.90
13742;DHT22;8461;52.356;10.704;2023-02-12T04:01:12;7.10;99.90
13742;DHT22;8461;52.356;10.704;2023-02-12T04:03:38;7.10;99.90
13742;DHT22;8461;52.356;10.704;2023-02-12T04:06:14;7.10;99.90
13742;DHT22;8461;52.356;10.704;2023-02-12T04:08:41;7.10;99.90
13742;DHT22;8461;52.356;10.704;2023-02-12T04:11:28;7.10;99.90
13742;DHT22;8461;52.356;10.704;2023-02-12T04:14:28;7.10;99.90
13742;DHT22;8461;52.356;10.704;2023-02-12T04:17:11;7.10;99.90
13742;DHT22;8461;52.356;10.704;2023-02-12T04:24:40;7.10;99.90
13742;DHT22;8461;52.356;10.704;2023-02-12T04:32:37;7.00;99.90
13742;DHT22;8461;52.356;10.704;2023-02-12T04:35:17;7.10;99.90
13742;DHT22;8461;52.356;10.704;2023-02-12T04:37:49;7.00;99.90
13742;DHT22;8461;52.356;10.704;2023-02-12T04:40:17;7.00;99.90
13742;DHT22;8461;52.356;10.704;2023-02-12T04:42:45;7.00;99.90
13742;DHT22;8461;52.356;10.704;2023-02-12T04:45:14;7.00;99.90
13742;DHT22;8461;52.356;10.704;2023-02-12T04:47:40;7.00;99.90
13742;DHT22;8461;52.356;10.704;2023-02-12T04:50:06;7.10;99.90
13742;DHT22;8461;52.356;10.704;2023-02-12T04:52:32;7.10;99.90
13742;DHT22;8461;52.356;10.704;2023-02-12T04:54:57;7.10;99.90
13742;DHT22;8461;52.356;10.704;2023-02-12T04:57:23;7.10;99.90
13742;DHT22;8461;52.356;10.704;2023-02-12T04:59:48;7.00;99.90
13742;DHT22;8461;52.356;10.704;2023-02-12T05:02:14;7.00;99.90
13742;DHT22;8461;52.356;10.704;2023-02-12T05:04:39;7.00;99.90
13742;DHT22;8461;52.356;10.704;2023-02-12T05:07:05;7.00;99.90
13742;DHT22;8461;52.356;10.704;2023-02-12T05:09:30;7.00;99.90
13742;DHT22;8461;52.356;10.704;2023-02-12T05:11:56;7.00;99.90
13742;DHT22;8461;52.356;10.704;2023-02-12T05:14:24;7.00;99.90
13742;DHT22;8461;52.356;10.704;2023-02-12T05:16:50;6.90;99.90
13742;DHT22;8461;52.356;10.704;2023-02-12T05:19:15;6.90;99.90
13742;DHT22;8461;52.356;10.704;2023-02-12T05:21:41;6.90;99.90
13742;DHT22;8461;52.356;10.704;2023-02-12T05:24:07;6.90;99.90
13742;DHT22;8461;52.356;10.704;2023-02-12T05:26:33;6.90;99.90
13742;DHT22;8461;52.356;10.704;2023-02-12T05:28:59;6.90;99.90
13742;DHT22;8461;52.356;10.704;2023-02-12T05:31:24;6.90;99.90
13742;DHT22;8461;52.356;10.704;2023-02-12T05:33:50;6.80;99.90
13742;DHT22;8461;52.356;10.704;2023-02-12T05:36:19;6.80;99.90
13742;DHT22;8461;52.356;10.704;2023-02-12T05:38:45;6.80;99.90
13742;DHT22;8461;52.356;10.704;2023-02-12T05:41:14;6.80;99.90
13742;DHT22;8461;52.356;10.704;2023-02-12T05:43:40;6.80;99.90
13742;DHT22;8461;52.356;10.704;2023-02-12T05:46:07;6.80;99.90
13742;DHT22;8461;52.356;10.704;2023-02-12T05:48:33;6.80;99.90
13742;DHT22;8461;52.356;10.704;2023-02-12T05:51:08;6.80;99.90
13742;DHT22;8461;52.356;10.704;2023-02-12T05:53:35;6.70;99.90
13742;DHT22;8461;52.356;10.704;2023-02-12T05:56:09;6.70;99.90
13742;DHT22;8461;52.356;10.704;2023-02-12T05:58:34;6.70;99.90
13742;DHT22;8461;52.356;10.704;2023-02-12T06:01:00;6.70;99.90
13742;DHT22;8461;52.356;10.704;2023-02-12T06:03:26;6.70;99.90
13742;DHT22;8461;52.356;10.704;2023-02-12T06:05:52;6.70;99.90
13742;DHT22;8461;52.356;10.704;2023-02-12T06:08:18;6.70;99.90
13742;DHT22;8461;52.356;10.704;2023-02-12T06:10:43;6.70;99.90
13742;DHT22;8461;52.356;10.704;2023-02-12T06:13:09;6.70;99.90
13742;DHT22;8461;52.356;10.704;2023-02-12T06:15:37;6.70;99.90
13742;DHT22;8461;52.356;10.704;2023-02-12T06:18:03;6.70;99.90
13742;DHT22;8461;52.356;10.704;2023-02-12T06:20:28;6.70;99.90
13742;DHT22;8461;52.356;10.704;2023-02-12T06:22:54;6.70;99.90
13742;DHT22;8461;52.356;10.704;2023-02-12T06:25:20;6.70;99.90
13742;DHT22;8461;52.356;10.704;2023-02-12T06:27:45;6.80;99.90
13742;DHT22;8461;52.356;10.704;2023-02-12T06:30:11;6.70;99.90
13742;DHT22;8461;52.356;10.704;2023-02-12T06:32:37;6.70;99.90
13742;DHT22;8461;52.356;10.704;2023-02-12T06:35:03;6.70;99.90
13742;DHT22;8461;52.356;10.704;2023-02-12T06:37:28;6.60;99.90
13742;DHT22;8461;52.356;10.704;2023-02-12T06:39:54;6.60;99.90
13742;DHT22;8461;52.356;10.704;2023-02-12T06:42:19;6.60;99.90
13742;DHT22;8461;52.356;10.704;2023-02-12T06:44:45;6.60;99.90
13742;DHT22;8461;52.356;10.704;2023-02-12T06:47:11;6.60;99.90
13742;DHT22;8461;52.356;10.704;2023-02-12T06:49:37;6.60;99.90
13742;DHT22;8461;52.356;10.704;2023-02-12T06:52:03;6.60;99.90
13742;DHT22;8461;52.356;10.704;2023-02-12T06:54:28;6.60;99.90
13742;DHT22;8461;52.356;10.704;2023-02-12T06:56:54;6.60;99.90
13742;DHT22;8461;52.356;10.704;2023-02-12T06:59:19;6.60;99.90
13742;DHT22;8461;52.356;10.704;2023-02-12T07:01:45;6.60;99.90
13742;DHT22;8461;52.356;10.704;2023-02-12T07:04:11;6.60;99.90
13742;DHT22;8461;52.356;10.704;2023-02-12T07:06:37;6.60;99.90
13742;DHT22;8461;52.356;10.704;2023-02-12T07:09:03;6.60;99.90
13742;DHT22;8461;52.356;10.704;2023-02-12T07:11:36;6.60;99.90
13742;DHT22;8461;52.356;10.704;2023-02-12T07:14:01;6.70;99.90
13742;DHT22;8461;52.356;10.704;2023-02-12T07:16:27;6.70;99.90
13742;DHT22;8461;52.356;10.704;2023-02-12T07:18:53;6.70;99.90
13742;DHT22;8461;52.356;10.704;2023-02-12T07:21:19;6.70;99.90
13742;DHT22;8461;52.356;10.704;2023-02-12T07:23:46;6.70;99.90
13742;DHT22;8461;52.356;10.704;2023-02-12T07:26:13;6.80;99.90
13742;DHT22;8461;52.356;10.704;2023-02-12T07:28:40;6.80;99.90
13742;DHT22;8461;52.356;10.704;2023-02-12T07:31:14;6.80;99.90
13742;DHT22;8461;52.356;10.704;2023-02-12T07:33:40;6.90;99.90
13742;DHT22;8461;52.356;10.704;2023-02-12T07:36:09;6.90;99.90
13742;DHT22;8461;52.356;10.704;2023-02-12T07:38:36;6.90;99.90
13742;DHT22;8461;52.356;10.704;2023-02-12T07:41:21;6.90;99.90
13742;DHT22;8461;52.356;10.704;2023-02-12T07:43:48;7.00;99.90
13742;DHT22;8461;52.356;10.704;2023-02-12T07:46:39;7.00;99.90
13742;DHT22;8461;52.356;10.704;2023-02-12T07:49:06;7.10;99.90
13742;DHT22;8461;52.356;10.704;2023-02-12T07:51:34;7.10;99.90
13742;DHT22;8461;52.356;10.704;2023-02-12T07:54:00;7.10;99.90
13742;DHT22;8461;52.356;10.704;2023-02-12T07:56:28;7.10;99.90
13742;DHT22;8461;52.356;10.704;2023-02-12T07:58:57;7.10;99.90
13742;DHT22;8461;52.356;10.704;2023-02-12T08:01:27;7.10;99.90
13742;DHT22;8461;52.356;10.704;2023-02-12T08:03:53;7.20;99.90
13742;DHT22;8461;52.356;10.704;2023-02-12T08:06:22;7.20;99.90
13742;DHT22;8461;52.356;10.704;2023-02-12T08:08:53;7.30;99.90
13742;DHT22;8461;52.356;10.704;2023-02-12T08:11:19;7.40;99.90
13742;DHT22;8461;52.356;10.704;2023-02-12T08:13:45;7.40;99.90
13742;DHT22;8461;52.356;10.704;2023-02-12T08:16:13;7.40;99.90
13742;DHT22;8461;52.356;10.704;2023-02-12T08:18:40;7.40;99.90
13742;DHT22;8461;52.356;10.704;2023-02-12T08:21:08;7.50;99.90
13742;DHT22;8461;52.356;10.704;2023-02-12T08:23:34;7.50;99.90
13742;DHT22;8461;52.356;10.704;2023-02-12T08:26:20;7.60;99.90
13742;DHT22;8461;52.356;10.704;2023-02-12T08:28:50;7.60;99.90
13742;DHT22;8461;52.356;10.704;2023-02-12T08:31:21;7.70;99.90
13742;DHT22;8461;52.356;10.704;2023-02-12T08:33:49;7.70;99.90
13742;DHT22;8461;52.356;10.704;2023-02-12T08:36:17;7.60;99.90
13742;DHT22;8461;52.356;10.704;2023-02-12T08:38:44;7.60;99.90
13742;DHT22;8461;52.356;10.704;2023-02-12T08:41:15;7.60;99.90
13742;DHT22;8461;52.356;10.704;2023-02-12T08:43:42;7.60;99.90
13742;DHT22;8461;52.356;10.704;2023-02-12T08:46:14;7.60;99.90
13742;DHT22;8461;52.356;10.704;2023-02-12T08:48:41;7.60;99.90
13742;DHT22;8461;52.356;10.704;2023-02-12T08:51:13;7.40;99.90
13742;DHT22;8461;52.356;10.704;2023-02-12T08:53:40;7.50;99.90
13742;DHT22;8461;52.356;10.704;2023-02-12T08:56:07;7.50;99.90
13742;DHT22;8461;52.356;10.704;2023-02-12T08:58:33;7.50;99.90
13742;DHT22;8461;52.356;10.704;2023-02-12T09:00:59;7.50;99.90
13742;DHT22;8461;52.356;10.704;2023-02-12T09:03:25;7.50;99.90
13742;DHT22;8461;52.356;10.704;2023-02-12T09:05:51;7.50;99.90
13742;DHT22;8461;52.356;10.704;2023-02-12T09:08:17;7.60;99.90
13742;DHT22;8461;52.356;10.704;2023-02-12T09:10:43;7.60;99.90
13742;DHT22;8461;52.356;10.704;2023-02-12T09:13:10;7.70;99.90
13742;DHT22;8461;52.356;10.704;2023-02-12T09:15:40;7.60;99.90
13742;DHT22;8461;52.356;10.704;2023-02-12T09:18:06;7.60;99.90
13742;DHT22;8461;52.356;10.704;2023-02-12T09:20:32;7.60;99.90
13742;DHT22;8461;52.356;10.704;2023-02-12T09:22:59;7.70;99.90
13742;DHT22;8461;52.356;10.704;2023-02-12T09:25:25;7.70;99.90
13742;DHT22;8461;52.356;10.704;2023-02-12T09:27:50;7.70;99.90
13742;DHT22;8461;52.356;10.704;2023-02-12T09:30:16;7.70;99.90
13742;DHT22;8461;52.356;10.704;2023-02-12T09:32:42;7.70;99.90
13742;DHT22;8461;52.356;10.704;2023-02-12T09:35:07;7.60;99.90
13742;DHT22;8461;52.356;10.704;2023-02-12T09:37:33;7.60;99.90
13742;DHT22;8461;52.356;10.704;2023-02-12T09:39:58;7.60;99.90
13742;DHT22;8461;52.356;10.704;2023-02-12T09:42:27;7.70;99.90
13742;DHT22;8461;52.356;10.704;2023-02-12T09:45:12;7.80;99.90
13742;DHT22;8461;52.356;10.704;2023-02-12T09:47:58;7.80;99.90
13742;DHT22;8461;52.356;10.704;2023-02-12T09:53:12;7.90;99.90
13742;DHT22;8461;52.356;10.704;2023-02-12T09:55:39;8.10;99.90
13742;DHT22;8461;52.356;10.704;2023-02-12T09:58:11;8.20;99.90
13742;DHT22;8461;52.356;10.704;2023-02-12T10:00:38;8.10;99.90
13742;DHT22;8461;52.356;10.704;2023-02-12T10:03:11;8.10;99.90
13742;DHT22;8461;52.356;10.704;2023-02-12T10:05:51;8.10;99.90
13742;DHT22;8461;52.356;10.704;2023-02-12T10:17:34;7.80;99.90
13742;DHT22;8461;52.356;10.704;2023-02-12T10:25:52;7.70;99.90
13742;DHT22;8461;52.356;10.704;2023-02-12T10:28:24;7.70;99.90
13742;DHT22;8461;52.356;10.704;2023-02-12T10:30:54;7.60;99.90
13742;DHT22;8461;52.356;10.704;2023-02-12T10:33:34;7.60;99.90
13742;DHT22;8461;52.356;10.704;2023-02-12T10:38:44;7.60;99.90
13742;DHT22;8461;52.356;10.704;2023-02-12T10:41:13;7.70;99.90
13742;DHT22;8461;52.356;10.704;2023-02-12T10:43:40;7.80;99.90
13742;DHT22;8461;52.356;10.704;2023-02-12T10:46:05;7.80;99.90
13742;DHT22;8461;52.356;10.704;2023-02-12T10:48:35;7.90;99.90
13742;DHT22;8461;52.356;10.704;2023-02-12T10:53:40;7.80;99.90
13742;DHT22;8461;52.356;10.704;2023-02-12T10:58:52;7.90;99.90
13742;DHT22;8461;52.356;10.704;2023-02-12T11:01:28;7.90;99.90
13742;DHT22;8461;52.356;10.704;2023-02-12T11:03:55;7.90;99.90
13742;DHT22;8461;52.356;10.704;2023-02-12T11:06:27;7.80;99.90
13742;DHT22;8461;52.356;10.704;2023-02-12T11:08:54;7.80;99.90
13742;DHT22;8461;52.356;10.704;2023-02-12T11:11:29;7.80;99.90
13742;DHT22;8461;52.356;10.704;2023-02-12T11:14:03;8.00;99.90
13742;DHT22;8461;52.356;10.704;2023-02-12T11:16:33;8.10;99.90
13742;DHT22;8461;52.356;10.704;2023-02-12T11:19:07;8.10;99.90
13742;DHT22;8461;52.356;10.704;2023-02-12T11:21:34;8.10;99.90
13742;DHT22;8461;52.356;10.704;2023-02-12T11:24:20;8.10;99.90
13742;DHT22;8461;52.356;10.704;2023-02-12T11:26:45;8.10;99.90
13742;DHT22;8461;52.356;10.704;2023-02-12T11:29:20;8.10;99.90
13742;DHT22;8461;52.356;10.704;2023-02-12T11:32:03;8.10;99.90
13742;DHT22;8461;52.356;10.704;2023-02-12T11:34:29;8.10;99.90
13742;DHT22;8461;52.356;10.704;2023-02-12T11:36:56;8.10;99.90
13742;DHT22;8461;52.356;10.704;2023-02-12T11:39:23;8.10;99.90
13742;DHT22;8461;52.356;10.704;2023-02-12T11:41:53;8.00;99.90
13742;DHT22;8461;52.356;10.704;2023-02-12T11:44:20;7.90;99.90
13742;DHT22;8461;52.356;10.704;2023-02-12T11:46:50;8.00;99.90
13742;DHT22;8461;52.356;10.704;2023-02-12T11:49:23;8.00;99.90
13742;DHT22;8461;52.356;10.704;2023-02-12T11:51:49;8.00;99.90
13742;DHT22;8461;52.356;10.704;2023-02-12T11:54:26;8.00;99.90
13742;DHT22;8461;52.356;10.704;2023-02-12T11:56:53;8.00;99.90
13742;DHT22;8461;52.356;10.704;2023-02-12T11:59:37;8.00;99.90
13742;DHT22;8461;52.356;10.704;2023-02-12T12:02:31;7.90;99.90
13742;DHT22;8461;52.356;10.704;2023-02-12T12:05:14;7.90;99.90
13742;DHT22;8461;52.356;10.704;2023-02-12T12:07:45;7.90;99.90
13742;DHT22;8461;52.356;10.704;2023-02-12T12:10:33;7.90;99.90
13742;DHT22;8461;52.356;10.704;2023-02-12T12:13:12;8.00;99.90
13742;DHT22;8461;52.356;10.704;2023-02-12T12:15:45;7.90;99.90
13742;DHT22;8461;52.356;10.704;2023-02-12T12:18:48;8.00;99.90
13742;DHT22;8461;52.356;10.704;2023-02-12T12:22:02;7.80;99.90
13742;DHT22;8461;52.356;10.704;2023-02-12T12:27:39;7.90;99.90
13742;DHT22;8461;52.356;10.704;2023-02-12T12:33:20;8.00;99.90
13742;DHT22;8461;52.356;10.704;2023-02-12T12:38:53;8.10;99.90
13742;DHT22;8461;52.356;10.704;2023-02-12T12:54:43;8.00;99.90
13742;DHT22;8461;52.356;10.704;2023-02-12T13:02:49;8.10;99.90
13742;DHT22;8461;52.356;10.704;2023-02-12T13:05:44;8.10;99.90
13742;DHT22;8461;52.356;10.704;2023-02-12T13:10:50;8.10;99.90
13742;DHT22;8461;52.356;10.704;2023-02-12T13:16:20;8.10;99.90
13742;DHT22;8461;52.356;10.704;2023-02-12T13:19:18;8.10;99.90
13742;DHT22;8461;52.356;10.704;2023-02-12T13:22:05;8.10;99.90
13742;DHT22;8461;52.356;10.704;2023-02-12T13:27:13;8.20;99.90
13742;DHT22;8461;52.356;10.704;2023-02-12T13:29:45;8.10;99.90
13742;DHT22;8461;52.356;10.704;2023-02-12T13:32:20;8.20;99.90
13742;DHT22;8461;52.356;10.704;2023-02-12T13:34:46;8.30;99.90
13742;DHT22;8461;52.356;10.704;2023-02-12T13:39:57;8.40;99.90
13742;DHT22;8461;52.356;10.704;2023-02-12T13:50:36;8.40;99.90
13742;DHT22;8461;52.356;10.704;2023-02-12T13:53:21;8.40;99.90
13742;DHT22;8461;52.356;10.704;2023-02-12T13:56:05;8.40;99.90
13742;DHT22;8461;52.356;10.704;2023-02-12T14:01:08;8.60;99.90
13742;DHT22;8461;52.356;10.704;2023-02-12T14:03:35;8.60;99.90
13742;DHT22;8461;52.356;10.704;2023-02-12T14:08:41;8.60;99.90
13742;DHT22;8461;52.356;10.704;2023-02-12T14:11:10;8.50;99.90
13742;DHT22;8461;52.356;10.704;2023-02-12T14:22:01;8.40;99.90
13742;DHT22;8461;52.356;10.704;2023-02-12T14:37:59;8.50;99.90
13742;DHT22;8461;52.356;10.704;2023-02-12T14:43:03;8.50;99.90
13742;DHT22;8461;52.356;10.704;2023-02-12T14:45:32;8.70;99.90
13742;DHT22;8461;52.356;10.704;2023-02-12T14:47:58;8.70;99.90
13742;DHT22;8461;52.356;10.704;2023-02-12T14:50:28;8.70;99.90
13742;DHT22;8461;52.356;10.704;2023-02-12T14:53:22;8.60;99.90
13742;DHT22;8461;52.356;10.704;2023-02-12T14:55:50;8.60;99.90
13742;DHT22;8461;52.356;10.704;2023-02-12T14:58:21;8.60;99.90
13742;DHT22;8461;52.356;10.704;2023-02-12T15:00:51;8.60;99.90
13742;DHT22;8461;52.356;10.704;2023-02-12T15:06:22;8.60;99.90
13742;DHT22;8461;52.356;10.704;2023-02-12T15:09:06;8.60;99.90
13742;DHT22;8461;52.356;10.704;2023-02-12T15:11:49;8.60;99.90
13742;DHT22;8461;52.356;10.704;2023-02-12T15:14:23;8.70;99.90
13742;DHT22;8461;52.356;10.704;2023-02-12T15:19:49;8.60;99.90
13742;DHT22;8461;52.356;10.704;2023-02-12T15:22:25;8.70;99.90
13742;DHT22;8461;52.356;10.704;2023-02-12T15:27:43;8.60;99.90
13742;DHT22;8461;52.356;10.704;2023-02-12T15:30:16;8.50;99.90
13742;DHT22;8461;52.356;10.704;2023-02-12T15:32:45;8.50;99.90
13742;DHT22;8461;52.356;10.704;2023-02-12T15:35:27;8.50;99.90
13742;DHT22;8461;52.356;10.704;2023-02-12T15:37:54;8.50;99.90
13742;DHT22;8461;52.356;10.704;2023-02-12T15:40:21;8.50;99.90
13742;DHT22;8461;52.356;10.704;2023-02-12T15:42:59;8.50;99.90
13742;DHT22;8461;52.356;10.704;2023-02-12T15:45:32;8.50;99.90
13742;DHT22;8461;52.356;10.704;2023-02-12T15:48:12;8.50;99.90
13742;DHT22;8461;52.356;10.704;2023-02-12T15:53:29;8.40;99.90
13742;DHT22;8461;52.356;10.704;2023-02-12T15:55:56;8.40;99.90
13742;DHT22;8461;52.356;10.704;2023-02-12T16:00:50;8.40;99.90
13742;DHT22;8461;52.356;10.704;2023-02-12T16:03:26;8.30;99.90
13742;DHT22;8461;52.356;10.704;2023-02-12T16:05:55;8.30;99.90
13742;DHT22;8461;52.356;10.704;2023-02-12T16:08:22;8.30;99.90
13742;DHT22;8461;52.356;10.704;2023-02-12T16:10:51;8.30;99.90
13742;DHT22;8461;52.356;10.704;2023-02-12T16:13:23;8.30;99.90
13742;DHT22;8461;52.356;10.704;2023-02-12T16:18:35;8.30;99.90
13742;DHT22;8461;52.356;10.704;2023-02-12T16:21:03;8.30;99.90
13742;DHT22;8461;52.356;10.704;2023-02-12T16:23:30;8.30;99.90
13742;DHT22;8461;52.356;10.704;2023-02-12T16:25:55;8.30;99.90
13742;DHT22;8461;52.356;10.704;2023-02-12T16:28:27;8.30;99.90
13742;DHT22;8461;52.356;10.704;2023-02-12T16:31:09;8.30;99.90
13742;DHT22;8461;52.356;10.704;2023-02-12T16:38:58;8.30;99.90
13742;DHT22;8461;52.356;10.704;2023-02-12T16:41:32;8.20;99.90
13742;DHT22;8461;52.356;10.704;2023-02-12T16:46:50;8.00;99.90
13742;DHT22;8461;52.356;10.704;2023-02-12T16:49:19;8.00;99.90
13742;DHT22;8461;52.356;10.704;2023-02-12T16:51:45;8.00;99.90
13742;DHT22;8461;52.356;10.704;2023-02-12T16:54:31;7.90;99.90
13742;DHT22;8461;52.356;10.704;2023-02-12T16:56:57;7.80;99.90
13742;DHT22;8461;52.356;10.704;2023-02-12T16:59:23;7.80;99.90
13742;DHT22;8461;52.356;10.704;2023-02-12T17:02:03;7.80;99.90
13742;DHT22;8461;52.356;10.704;2023-02-12T17:04:29;7.80;99.90
13742;DHT22;8461;52.356;10.704;2023-02-12T17:06:55;7.80;99.90
13742;DHT22;8461;52.356;10.704;2023-02-12T17:09:21;7.80;99.90
13742;DHT22;8461;52.356;10.704;2023-02-12T17:11:47;7.80;99.90
13742;DHT22;8461;52.356;10.704;2023-02-12T17:14:15;7.70;99.90
13742;DHT22;8461;52.356;10.704;2023-02-12T17:16:42;7.80;99.90
13742;DHT22;8461;52.356;10.704;2023-02-12T17:19:07;7.80;99.90
13742;DHT22;8461;52.356;10.704;2023-02-12T17:21:36;7.70;99.90
13742;DHT22;8461;52.356;10.704;2023-02-12T17:24:21;7.80;99.90
13742;DHT22;8461;52.356;10.704;2023-02-12T17:26:48;7.80;99.90
13742;DHT22;8461;52.356;10.704;2023-02-12T17:29:18;7.80;99.90
13742;DHT22;8461;52.356;10.704;2023-02-12T17:31:44;7.70;99.90
13742;DHT22;8461;52.356;10.704;2023-02-12T17:34:09;7.80;99.90
13742;DHT22;8461;52.356;10.704;2023-02-12T17:36:35;7.80;99.90
13742;DHT22;8461;52.356;10.704;2023-02-12T17:39:03;7.70;99.90
13742;DHT22;8461;52.356;10.704;2023-02-12T17:41:30;7.70;99.90
13742;DHT22;8461;52.356;10.704;2023-02-12T17:43:56;7.70;99.90
13742;DHT22;8461;52.356;10.704;2023-02-12T17:46:23;7.70;99.90
13742;DHT22;8461;52.356;10.704;2023-02-12T17:48:49;7.70;99.90
13742;DHT22;8461;52.356;10.704;2023-02-12T17:51:15;7.70;99.90
13742;DHT22;8461;52.356;10.704;2023-02-12T17:53:41;7.70;99.90
13742;DHT22;8461;52.356;10.704;2023-02-12T17:56:17;7.70;99.90
13742;DHT22;8461;52.356;10.704;2023-02-12T17:58:45;7.70;99.90
13742;DHT22;8461;52.356;10.704;2023-02-12T18:01:17;7.70;99.90
13742;DHT22;8461;52.356;10.704;2023-02-12T18:03:43;7.70;99.90
13742;DHT22;8461;52.356;10.704;2023-02-12T18:06:10;7.70;99.90
13742;DHT22;8461;52.356;10.704;2023-02-12T18:08:42;7.60;99.90
13742;DHT22;8461;52.356;10.704;2023-02-12T18:11:09;7.70;99.90
13742;DHT22;8461;52.356;10.704;2023-02-12T18:13:35;7.70;99.90
13742;DHT22;8461;52.356;10.704;2023-02-12T18:16:05;7.60;99.90
13742;DHT22;8461;52.356;10.704;2023-02-12T18:18:31;7.60;99.90
13742;DHT22;8461;52.356;10.704;2023-02-12T18:20:57;7.60;99.90
13742;DHT22;8461;52.356;10.704;2023-02-12T18:23:22;7.60;99.90
13742;DHT22;8461;52.356;10.704;2023-02-12T18:25:48;7.60;99.90
13742;DHT22;8461;52.356;10.704;2023-02-12T18:28:13;7.60;99.90
13742;DHT22;8461;52.356;10.704;2023-02-12T18:30:39;7.60;99.90
13742;DHT22;8461;52.356;10.704;2023-02-12T18:33:08;7.60;99.90
13742;DHT22;8461;52.356;10.704;2023-02-12T18:35:33;7.60;99.90
13742;DHT22;8461;52.356;10.704;2023-02-12T18:38:01;7.60;99.90
13742;DHT22;8461;52.356;10.704;2023-02-12T18:40:27;7.60;99.90
13742;DHT22;8461;52.356;10.704;2023-02-12T18:42:52;7.60;99.90
13742;DHT22;8461;52.356;10.704;2023-02-12T18:45:18;7.60;99.90
13742;DHT22;8461;52.356;10.704;2023-02-12T18:47:44;7.60;99.90
13742;DHT22;8461;52.356;10.704;2023-02-12T18:50:10;7.60;99.90
13742;DHT22;8461;52.356;10.704;2023-02-12T18:52:36;7.60;99.90